Terminal Aerodrome Forecast
Issued by NWS

Home | Current Version | Previous Version | Text Only | Print | Product List | Glossary On
Versions: 1 2 3 4 5 6 7 8 9 10 11 12 13 14 15 16
000
FTUS46 KOTX 311744 CCA
TAFMWH
TAF COR
KMWH 311744Z 3118/0118 14005KT P6SM SCT250
     FM010700 03005KT P6SM SCT150 SCT200 BKN250
     FM011700 19007KT P6SM SCT150 SCT200=

USA.gov is the U.S. government's official web portal to all federal, state and local government web resources and services.